• Join FlightAware (Why Join?)
  • Login
  • US Flag 
08:29PM EDT


 

Airport Tracker/Info


-or-


 

Live Flight TrackerFlight Track Log ✈ BVN8571 ✈ 03-Jul-2014 ✈ KOMA - KEAR

Flight Track Log - Related Links

Times and Time Zones

All times are in EDT time to prevent confusion due to time zone crossing. See the BVN8571 flight status page for this flight to view local times or setup timezone preferences in your user account.

Time Position Orientation Groundspeed Altitude Reporting Facility
EDT Latitude Longitude Course Direction KTS MPH feet Rate Location/Type
07:56AM 41.2972 -95.8944 258° West 96 110 1,300  Level Minneapolis Center
07:57AM 41.2797 -95.8825 153° Southeast 117 135 1,900 780 Climbing Minneapolis Center
07:58AM 41.2636 -95.8836 183° South 109 125 2,300 780 Climbing Minneapolis Center
07:58AM 41.2558 -95.8992 236° Southwest 104 120 2,700 840 Climbing Minneapolis Center
07:59AM 41.2522 -95.9172 255° West 105 121 3,200 780 Climbing Minneapolis Center
07:59AM 41.2500 -95.9386 262° West 118 136 3,500 780 Climbing Minneapolis Center
08:00AM 41.2447 -95.9603 252° West 115 132 4,000 840 Climbing Minneapolis Center
08:00AM 41.2403 -95.9842 256° West 121 139 4,400 780 Climbing Minneapolis Center
08:01AM 41.2378 -96.0047 261° West 118 136 4,800 720 Climbing Minneapolis Center
08:01AM 41.2325 -96.0239 250° West 129 148 5,100 780 Climbing Minneapolis Center
08:02AM 41.2411 -96.2034 258° West  Level FlightAware Approximate
08:02AM 41.2292 -96.0528 261° West 126 145 5,600  Level Minneapolis Center
08:02AM 41.2231 -96.0719 247° West 132 152 5,900 780 Climbing Minneapolis Center
08:03AM 41.2203 -96.1014 263° West 130 150 6,400 780 Climbing Minneapolis Center
08:03AM 41.2158 -96.1200 252° West 131 151 6,700 780 Climbing Minneapolis Center
08:04AM 41.2131 -96.1469 262° West 130 150 7,200 780 Climbing Minneapolis Center
08:04AM 41.2081 -96.1650 250° West 121 139 7,500 720 Climbing Minneapolis Center
08:05AM 41.2064 -96.1889 265° West 121 139 8,000 540 Climbing Minneapolis Center
08:05AM 41.2003 -96.2075 246° West 113 130 8,100  Climbing Minneapolis Center
08:06AM 41.2025 -96.2344 276° West 122 140 8,000 -120 Descending Minneapolis Center
08:06AM 41.1936 -96.2636 248° West 156 180 8,000  Level Minneapolis Center
08:07AM 41.1942 -96.2894 272° West 144 166 8,000  Level Minneapolis Center
08:07AM 41.1842 -96.3172 244° Southwest 143 165 8,000  Level Minneapolis Center
08:08AM 41.1867 -96.3417 278° West 145 167 8,000  Level Minneapolis Center
08:08AM 41.1750 -96.3681 240° Southwest 144 166 8,000  Level Minneapolis Center
08:09AM 41.1781 -96.3936 279° West 145 167 8,000  Level Minneapolis Center
08:09AM 41.1675 -96.4161 238° Southwest 146 168 8,000  Level Minneapolis Center
08:10AM 41.1703 -96.4467 277° West 145 167 8,000  Level Minneapolis Center
08:10AM 41.1581 -96.4694 235° Southwest 145 167 8,000  Level Minneapolis Center
08:11AM 41.1592 -96.5100 272° West 145 167 8,000  Level Minneapolis Center
08:11AM 41.1486 -96.5203 216° Southwest 148 170 8,000  Level Minneapolis Center
08:12AM 41.1503 -96.5642 273° West 146 168 8,000  Level Minneapolis Center
08:12AM 41.1394 -96.5767 221° Southwest 148 170 8,000  Level Minneapolis Center
08:13AM 41.1419 -96.6169 275° West 146 168 8,000  Level Minneapolis Center
08:13AM 41.1286 -96.6358 227° Southwest 150 173 8,000  Level Minneapolis Center
08:14AM 41.1192 -96.6894 257° West 148 170 8,000  Level Minneapolis Center
08:15AM 41.1117 -96.7400 259° West 147 169 8,000  Level Minneapolis Center
08:16AM 41.1169 -96.7775 281° West 149 171 8,000  Level Minneapolis Center
08:17AM 41.1075 -96.8331 257° West 149 171 8,000  Level Minneapolis Center
08:18AM 41.0994 -96.8853 258° West 149 171 8,000  Level Minneapolis Center
08:19AM 41.0908 -96.9392 258° West 149 171 8,000  Level Minneapolis Center
08:20AM 41.0828 -96.9944 259° West 149 171 8,000  Level Minneapolis Center
08:21AM 41.0714 -97.0575 257° West 149 171 8,000  Level Minneapolis Center
08:22AM 41.0633 -97.1117 259° West 149 171 8,000  Level Minneapolis Center
08:23AM 41.0536 -97.1656 257° West 149 171 8,000  Level Minneapolis Center
08:24AM 41.0447 -97.2192 258° West 149 171 8,000  Level Minneapolis Center
08:25AM 41.0353 -97.2714 257° West 149 171 8,000  Level Minneapolis Center
08:26AM 41.0261 -97.3253 257° West 149 171 8,000  Level Minneapolis Center
08:27AM 41.0167 -97.3844 258° West 149 171 8,000  Level Minneapolis Center
08:28AM 41.0078 -97.4378 258° West 149 171 8,100  Climbing Minneapolis Center
08:29AM 41.0008 -97.4906 260° West 149 171 8,000 -60 Descending Minneapolis Center
08:30AM 40.9908 -97.5447 256° West 149 171 8,000  Level Minneapolis Center
08:31AM 40.9808 -97.5986 256° West 149 171 8,000  Level Minneapolis Center
08:32AM 40.9719 -97.6539 258° West 150 173 8,000  Level Minneapolis Center
08:33AM 40.9617 -97.7206 258° West 151 174 8,000  Level Minneapolis Center
08:34AM 40.9517 -97.7747 256° West 151 174 8,000  Level Minneapolis Center
08:35AM 40.9403 -97.8300 255° West 152 175 8,000  Level Minneapolis Center
08:36AM 40.9294 -97.8836 255° West 152 175 8,000  Level Minneapolis Center
08:37AM 40.9189 -97.9400 256° West 153 176 8,000  Level Minneapolis Center
08:38AM 40.9086 -97.9953 256° West 153 176 8,000  Level Minneapolis Center
08:40AM 40.8981 -98.0511 256° West 154 177 8,000  Level Minneapolis Center
08:41AM 40.8883 -98.1083 257° West 155 178 8,000  Level Minneapolis Center
08:42AM 40.8767 -98.1750 257° West 155 178 8,000  Level Minneapolis Center
08:43AM 40.8672 -98.2331 258° West 156 180 8,000  Level Minneapolis Center
08:44AM 40.8567 -98.2889 256° West 156 180 8,000  Level Minneapolis Center
08:45AM 40.8478 -98.3464 258° West 156 180 8,000  Level Minneapolis Center
08:46AM 40.8381 -98.4042 257° West 157 181 8,000 -180 Level Minneapolis Center
08:47AM 40.8267 -98.4631 256° West 159 183 7,700 -480 Descending Minneapolis Center
08:48AM 40.8156 -98.5261 257° West 170 196 7,100 -720 Descending Minneapolis Center
08:49AM 40.8047 -98.5919 258° West 177 204 6,300 -840 Descending Minneapolis Center
08:50AM 40.7953 -98.6533 259° West 176 203 5,500 -720 Descending Minneapolis Center
08:51AM 40.7831 -98.7097 254° West 168 193 4,900 -480 Descending Minneapolis Center
08:52AM 40.7728 -98.7739 258° West 157 181 4,600 -240 Descending Minneapolis Center
08:53AM 40.7631 -98.8206 255° West 144 166 4,500 -240 Descending Minneapolis Center
08:54AM 40.7558 -98.8692 259° West 139 160 4,200 -300 Descending Minneapolis Center
08:55AM 40.7536 -98.9217 267° West 139 160 3,900 -360 Descending Minneapolis Center
08:56AM 40.7550 -98.9747 272° West 139 160 3,500 -780 Descending Minneapolis Center
08:57AM 40.7436 -99.0058 244° Southwest 127 146 2,400 -1,080 Descending Minneapolis Center